logo
Search for airport 
image banner adimage banner adimage banner ad
image banner ad

ZYTX - Shenyang/Taoxian

Located in Shenyang, China

ICAO - ZYTX, IATA - SHE

Data provided by Airmate  

General information

Coordinates: N41°38'30" E123°29'6"
Elevation is 200 feet MSL.
 
Rated:
View ratings:
[VIEW]
View others Airports in Liaoning Province

Operational data

Special qualification required
Current time UTC:
Current local time:
Weather
METAR: ZYTX 220900Z 22005MPS 9999 FEW030 BKN040 22/08 Q1010 NOSIG
TAF: TAF ZYTX 220308Z 2206/2306 22008G13MPS 6000 NSC TX24/2206Z TN11/2220Z BECMG 2211/2212 15004MPS TEMPO 2302/2306 SHRA FEW030CB BKN033
View NOTAMs / SUP AIP / TFR affecting this airport [VIEW]
Communications frequencies: [VIEW]

Runways:

RWY identifierQFULength (ft)Width (ft)SurfaceLDA (ft)
0648°10499148CON
24228°10499148CON

Airport contact information

Address: Shenyang China

Satellite view of ZYTX